ADDS METAR Data INFO
IDs: Format: Raw Decoded Include TAF

Data at: 1936 UTC 19 Jul 2018

KDBQ 191853Z 14013G22KT 10SM CLR 20/16 A2989 RMK AO2 SLP116 T02000161
KDBQ 191753Z 16011KT 10SM SCT035 SCT043 BKN065 18/16 A2992 RMK AO2 RAE42 SLP128 P0003 60006 T01830161 10194 20172 58013
KDBQ 191653Z 16011KT 10SM -RA FEW080 OVC110 18/14 A2994 RMK AO2 SLP135 P0003 T01780144
KDBQ 191553Z 16007KT 8SM -RA OVC110 18/14 A2995 RMK AO2 RAB28 SLP140 P0000 T01780139
KDBQ 191453Z 16008KT 10SM CLR 19/13 A2996 RMK AO2 SLP140 T01890133 58009
KDBQ 191353Z 15008KT 10SM SCT080 BKN100 18/13 A2997 RMK AO2 SLP146 T01830128
KDBQ 191253Z 15010KT 10SM CLR 18/12 A2998 RMK AO2 SLP149 T01830122
KDBQ 191153Z 14007KT 10SM CLR 17/13 A2998 RMK AO2 SLP149 T01720128 10189 20167 58006
KDBQ 191053Z 16007KT 10SM BKN095 17/13 A3000 RMK AO2 SLP154 T01670133
KDBQ 190953Z AUTO 15007KT 10SM BKN095 17/13 A3000 RMK AO2 SLP154 T01720128
KDBQ 190853Z AUTO 16009KT 10SM CLR 17/14 A3000 RMK AO2 SLP154 T01720139 56008
KDBQ 190753Z AUTO 16010KT 10SM CLR 18/14 A3001 RMK AO2 SLP157 T01780144
KDBQ 190653Z AUTO 16008KT 10SM CLR 18/15 A3002 RMK AO2 SLP159 T01830150
KDBQ 190553Z AUTO 15008KT 10SM CLR 19/15 A3003 RMK AO2 SLP163 T01890150 10250 20189 402670156 58003
KDBQ 190453Z AUTO 16009KT 10SM CLR 19/16 A3004 RMK AO2 SLP167 T01940161
KDBQ 190353Z AUTO 16008KT 10SM CLR 19/16 A3004 RMK AO2 SLP168 T01940161
KDBQ 190253Z AUTO 15007KT 10SM CLR 21/16 A3004 RMK AO2 SLP168 T02060161 53002
KDBQ 190153Z AUTO 14008KT 10SM CLR 22/17 A3003 RMK AO2 SLP164 T02170172
KDBQ 190053Z 14006KT 10SM CLR 23/18 A3003 RMK AO2 SLP163 T02280178
KDBQ 182353Z 14006KT 10SM CLR 25/17 A3003 RMK AO2 SLP165 T02500167 10267 20244 56012
KDBQ 182253Z 15010KT 10SM CLR 26/17 A3004 RMK AO2 SLP167 T02560172
KDBQ 182153Z 15008KT 10SM CLR 26/17 A3005 RMK AO2 SLP171 T02610167
KDBQ 182053Z 16004KT 10SM FEW041 26/16 A3007 RMK AO2 SLP177 T02610161 56014
KDBQ 181953Z 18005KT 10SM CLR 26/17 A3009 RMK AO2 SLP182 T02610167
KDBQ 181853Z 18009KT 10SM SCT035 26/18 A3010 RMK AO2 SLP187 T02560178
KDBQ 181753Z 20007KT 10SM SCT027 BKN050 25/18 A3011 RMK AO2 SLP192 T02500178 10250 20178 58005
KDBQ 181653Z 19009KT 10SM FEW027 BKN050 24/17 A3013 RMK AO2 SLP196 T02390172
KDBQ 181553Z 18006KT 10SM CLR 23/17 A3013 RMK AO2 SLP199 T02330167
KDBQ 181453Z 16007KT 10SM CLR 22/16 A3013 RMK AO2 SLP197 T02170161 58004 $
KDBQ 181353Z 16006KT 10SM CLR 21/16 A3015 RMK AO2 SLP204 T02060156 $
KDBQ 181253Z 16008KT 10SM CLR 19/16 A3015 RMK AO2 SLP203 T01890156 $
KDBQ 181153Z 00000KT 10SM CLR 17/14 A3014 RMK AO2 SLP201 T01720144 10189 20156 53003 $
KDBQ 181053Z 18003KT 10SM CLR 16/14 A3013 RMK AO2 SLP198 T01610139 $
KDBQ 180953Z AUTO 18003KT 10SM FEW055 17/14 A3013 RMK AO2 SLP198 T01670144
KDBQ 180853Z AUTO 15009KT 10SM CLR 17/14 A3013 RMK AO2 SLP198 T01720144 51005
KDBQ 180753Z AUTO 14004KT 10SM SCT055 18/15 A3013 RMK AO2 SLP198 T01780150